Time;durP1;ratioP1;P1;durP2;ratioP2;P2;SDS_P1;SDS_P2;PMS_P1;PMS_P2;Temp;Humidity;BMP_temperature;BMP_pressure;BME280_temperature;BME280_humidity;BME280_pressure;Samples;Min_cycle;Max_cycle;Signal;HPM_P1;HPM_P2
2021/07/28 00:00:44;;;;;;;12.00;8.02;;;19.20;99.90;;;;;;5089636;28;20237;-75
2021/07/28 00:03:11;;;;;;;15.65;7.78;;;19.20;99.90;;;;;;5088197;28;20260;-75
2021/07/28 00:05:38;;;;;;;12.38;8.00;;;19.20;99.90;;;;;;5066531;28;20197;-75
2021/07/28 00:08:06;;;;;;;15.52;7.90;;;19.10;99.90;;;;;;5076248;28;20247;-75
2021/07/28 00:15:56;;;;;;;19.35;9.40;;;19.10;99.90;;;;;;5070099;28;20251;-75
2021/07/28 00:18:39;;;;;;;13.98;7.47;;;19.10;99.90;;;;;;5072921;28;20205;-76
2021/07/28 00:23:50;;;;;;;11.00;8.40;;;19.10;99.90;;;;;;5082336;28;20251;-75
2021/07/28 00:26:17;;;;;;;13.05;7.95;;;19.00;99.90;;;;;;5066520;28;20251;-75
2021/07/28 00:28:43;;;;;;;12.93;7.50;;;19.00;99.90;;;;;;5078400;28;20228;-75
2021/07/28 00:31:12;;;;;;;15.52;8.20;;;19.00;99.90;;;;;;5073575;28;20223;-75
2021/07/28 00:33:39;;;;;;;12.68;8.45;;;19.00;99.90;;;;;;5078151;28;20201;-75
2021/07/28 00:36:06;;;;;;;12.73;8.25;;;18.90;99.90;;;;;;5082085;28;20200;-76
2021/07/28 00:38:32;;;;;;;13.85;8.15;;;18.90;99.90;;;;;;5066298;28;20209;-75
2021/07/28 00:40:59;;;;;;;18.25;7.75;;;18.90;99.90;;;;;;5076465;28;20201;-76
2021/07/28 00:43:35;;;;;;;13.85;7.32;;;18.90;99.90;;;;;;5070755;28;20197;-76
2021/07/28 00:48:59;;;;;;;10.85;7.57;;;18.90;99.90;;;;;;5071706;28;20236;-76
2021/07/28 00:51:33;;;;;;;9.63;7.18;;;18.90;99.90;;;;;;5068593;28;20224;-75
2021/07/28 00:56:50;;;;;;;9.55;7.70;;;19.00;99.90;;;;;;5071092;28;20205;-76
2021/07/28 01:04:55;;;;;;;15.50;8.30;;;18.90;99.90;;;;;;5072645;28;20235;-76
2021/07/28 01:07:22;;;;;;;10.60;7.50;;;18.90;99.90;;;;;;5067558;28;20279;-76
2021/07/28 01:09:49;;;;;;;11.98;7.47;;;18.90;99.90;;;;;;5070409;28;20640;-76
2021/07/28 01:12:16;;;;;;;12.35;7.75;;;19.00;99.90;;;;;;5076228;28;20263;-76
2021/07/28 01:20:23;;;;;;;14.35;8.95;;;19.00;99.90;;;;;;5070076;28;20268;-76
2021/07/28 01:22:54;;;;;;;13.18;8.65;;;19.00;99.90;;;;;;5065399;28;20525;-76
2021/07/28 01:25:38;;;;;;;11.23;8.65;;;18.90;99.90;;;;;;5078352;28;20231;-76
2021/07/28 01:28:05;;;;;;;15.70;8.25;;;18.90;99.90;;;;;;5075276;28;20240;-76
2021/07/28 01:30:32;;;;;;;19.08;8.85;;;18.90;99.90;;;;;;5065612;28;20639;-76
2021/07/28 01:33:02;;;;;;;12.80;8.25;;;19.00;99.90;;;;;;5076360;28;20201;-76
2021/07/28 01:35:32;;;;;;;20.38;9.10;;;18.90;99.90;;;;;;5080749;28;20197;-76
2021/07/28 01:38:00;;;;;;;10.52;7.93;;;18.90;99.90;;;;;;5069972;28;20201;-76
2021/07/28 01:40:27;;;;;;;13.02;8.32;;;19.00;99.90;;;;;;5077775;28;20199;-76
2021/07/28 01:42:56;;;;;;;11.18;8.30;;;18.90;99.90;;;;;;5080459;28;20205;-75
2021/07/28 01:45:23;;;;;;;14.25;9.13;;;18.90;99.90;;;;;;5071204;28;20269;-75
2021/07/28 01:47:50;;;;;;;13.10;8.77;;;18.90;99.90;;;;;;5079633;28;20225;-75
2021/07/28 01:50:17;;;;;;;9.63;7.43;;;18.80;99.90;;;;;;5072584;28;20201;-75
2021/07/28 01:52:43;;;;;;;13.68;9.95;;;18.80;99.90;;;;;;5073925;28;20231;-75
2021/07/28 01:55:12;;;;;;;13.98;8.95;;;18.70;99.90;;;;;;5081532;28;20201;-75
2021/07/28 01:57:40;;;;;;;12.68;8.52;;;18.70;99.90;;;;;;5071475;28;20572;-75
2021/07/28 02:00:09;;;;;;;14.73;7.88;;;18.80;99.90;;;;;;5065644;28;20236;-76
2021/07/28 02:02:41;;;;;;;12.98;8.93;;;18.80;99.90;;;;;;5071513;28;20538;-76
2021/07/28 02:05:10;;;;;;;10.45;8.32;;;18.80;99.90;;;;;;5075981;28;20205;-76
2021/07/28 02:07:37;;;;;;;12.00;8.30;;;18.80;99.90;;;;;;5070414;28;20226;-75
2021/07/28 02:10:05;;;;;;;10.32;7.80;;;18.80;99.90;;;;;;5070670;28;20263;-76
2021/07/28 02:12:32;;;;;;;10.13;7.57;;;18.80;99.90;;;;;;5071145;28;20396;-75
2021/07/28 02:14:59;;;;;;;10.90;7.95;;;18.80;99.90;;;;;;5074308;28;20228;-75
2021/07/28 02:17:28;;;;;;;13.90;8.50;;;18.80;99.90;;;;;;5064542;28;20205;-76
2021/07/28 02:19:55;;;;;;;17.65;8.85;;;18.90;99.90;;;;;;5074253;28;20205;-76
2021/07/28 02:22:24;;;;;;;14.27;8.75;;;18.80;99.90;;;;;;5069679;28;20209;-76
2021/07/28 02:24:51;;;;;;;11.05;8.30;;;18.80;99.90;;;;;;5070885;28;20205;-76
2021/07/28 02:27:21;;;;;;;11.70;7.95;;;18.80;99.90;;;;;;5071128;28;20197;-76
2021/07/28 02:29:49;;;;;;;14.15;8.13;;;18.80;99.90;;;;;;5069160;28;20738;-76
2021/07/28 02:32:16;;;;;;;11.38;7.28;;;18.80;99.90;;;;;;5075726;28;20268;-75
2021/07/28 02:34:44;;;;;;;18.17;8.07;;;18.90;99.90;;;;;;5070343;28;20209;-75
2021/07/28 02:37:11;;;;;;;18.83;8.55;;;18.90;99.90;;;;;;5067027;28;20194;-75
2021/07/28 02:39:38;;;;;;;14.40;7.70;;;18.90;99.90;;;;;;5066723;28;20250;-75
2021/07/28 02:42:05;;;;;;;15.50;8.20;;;18.80;99.90;;;;;;5064455;28;20202;-75
2021/07/28 02:44:32;;;;;;;12.02;7.78;;;18.80;99.90;;;;;;5069449;28;20239;-75
2021/07/28 02:46:59;;;;;;;13.57;9.27;;;18.80;99.90;;;;;;5071640;28;20223;-76
2021/07/28 02:49:27;;;;;;;13.27;8.25;;;18.80;99.90;;;;;;5077638;28;20625;-76
2021/07/28 02:51:56;;;;;;;11.05;7.80;;;18.80;99.90;;;;;;5080432;28;20223;-76
2021/07/28 02:54:23;;;;;;;11.63;8.48;;;18.70;99.90;;;;;;5068175;28;20210;-76
2021/07/28 03:07:50;;;;;;;12.18;9.30;;;18.50;99.90;;;;;;5083534;28;20235;-76
2021/07/28 03:10:17;;;;;;;14.88;9.60;;;18.50;99.90;;;;;;5077462;28;20201;-76
2021/07/28 03:12:44;;;;;;;18.15;9.25;;;18.50;99.90;;;;;;5073149;28;20231;-76
2021/07/28 03:15:11;;;;;;;11.70;8.30;;;18.50;99.90;;;;;;5068182;28;20205;-76
2021/07/28 03:23:16;;;;;;;15.05;9.13;;;18.40;99.90;;;;;;5083254;28;20283;-76
2021/07/28 03:25:43;;;;;;;15.27;9.68;;;18.40;99.90;;;;;;5068305;28;20243;-76
2021/07/28 03:28:10;;;;;;;13.98;8.63;;;18.40;99.90;;;;;;5074345;28;20220;-76
2021/07/28 03:30:37;;;;;;;12.60;8.95;;;18.40;99.90;;;;;;5080746;28;20202;-76
2021/07/28 03:33:07;;;;;;;12.63;9.20;;;18.40;99.90;;;;;;5068500;28;20237;-76
2021/07/28 03:35:34;;;;;;;11.38;9.00;;;18.40;99.90;;;;;;5070769;28;20197;-75
2021/07/28 03:38:03;;;;;;;12.82;8.90;;;18.40;99.90;;;;;;5076300;28;20206;-76
2021/07/28 03:40:31;;;;;;;11.52;8.45;;;18.40;99.90;;;;;;5073067;28;20198;-76
2021/07/28 03:42:58;;;;;;;11.65;8.10;;;18.50;99.90;;;;;;5071327;28;20206;-76
2021/07/28 03:45:25;;;;;;;14.25;8.90;;;18.40;99.90;;;;;;5073816;28;20266;-76
2021/07/28 03:47:52;;;;;;;14.48;9.32;;;18.50;99.90;;;;;;5071966;28;20263;-75
2021/07/28 03:50:20;;;;;;;14.43;9.07;;;18.60;99.90;;;;;;5072919;28;20197;-75
2021/07/28 03:52:47;;;;;;;15.50;9.60;;;18.70;99.90;;;;;;5059156;28;20459;-75
2021/07/28 03:55:14;;;;;;;14.45;8.77;;;18.60;99.90;;;;;;5080722;28;20228;-75
2021/07/28 03:57:42;;;;;;;13.55;8.63;;;18.60;99.90;;;;;;5079144;28;20202;-75
2021/07/28 04:00:11;;;;;;;14.63;8.80;;;18.60;99.90;;;;;;5072942;28;20251;-75
2021/07/28 04:02:38;;;;;;;10.57;8.02;;;18.60;99.90;;;;;;5074593;28;20201;-75
2021/07/28 04:05:06;;;;;;;13.73;9.40;;;18.70;99.90;;;;;;5070690;28;20202;-75
2021/07/28 04:10:21;;;;;;;19.58;10.07;;;18.60;99.90;;;;;;5070448;28;20216;-75
2021/07/28 04:12:49;;;;;;;18.75;8.77;;;18.60;99.90;;;;;;5070241;28;20209;-75
2021/07/28 04:15:17;;;;;;;13.23;8.55;;;18.50;99.90;;;;;;5076872;28;20201;-75
2021/07/28 04:17:44;;;;;;;13.48;9.45;;;18.60;99.90;;;;;;5075268;28;20232;-75
2021/07/28 04:20:11;;;;;;;13.18;9.48;;;18.60;99.90;;;;;;5072444;28;20205;-75
2021/07/28 04:22:38;;;;;;;15.82;10.13;;;18.50;99.90;;;;;;5067652;28;20193;-75
2021/07/28 04:25:07;;;;;;;21.30;8.93;;;18.40;99.90;;;;;;5069024;28;20205;-75
2021/07/28 04:27:34;;;;;;;14.23;9.43;;;18.40;99.90;;;;;;5082961;28;20202;-75
2021/07/28 04:30:02;;;;;;;12.98;9.30;;;18.40;99.90;;;;;;5075592;28;20225;-75
2021/07/28 04:32:29;;;;;;;16.05;9.95;;;18.40;99.90;;;;;;5076182;28;20205;-75
2021/07/28 04:34:57;;;;;;;19.35;9.75;;;18.40;99.90;;;;;;5083287;28;20646;-75
2021/07/28 04:37:24;;;;;;;12.90;9.30;;;18.40;99.90;;;;;;5082821;28;20226;-75
2021/07/28 04:39:51;;;;;;;15.27;8.77;;;18.40;99.90;;;;;;5071631;28;20657;-75
2021/07/28 04:42:18;;;;;;;14.07;8.73;;;18.40;99.90;;;;;;5075248;28;20263;-75
2021/07/28 04:44:45;;;;;;;11.93;9.32;;;18.40;99.90;;;;;;5072704;28;20259;-74
2021/07/28 04:47:13;;;;;;;13.85;9.75;;;18.40;99.90;;;;;;5077407;28;20216;-74
2021/07/28 04:49:40;;;;;;;11.45;8.65;;;18.40;99.90;;;;;;5066567;28;20229;-74
2021/07/28 04:52:09;;;;;;;14.15;9.30;;;18.40;99.90;;;;;;5068435;28;20202;-74
2021/07/28 04:54:36;;;;;;;13.65;8.68;;;18.40;99.90;;;;;;5077869;28;20244;-74
2021/07/28 04:57:03;;;;;;;16.38;9.13;;;18.40;99.90;;;;;;5074210;28;20400;-74
2021/07/28 04:59:30;;;;;;;9.27;7.65;;;18.50;99.90;;;;;;5069376;28;20201;-74
2021/07/28 05:01:57;;;;;;;13.75;9.40;;;18.50;99.90;;;;;;5076497;28;20629;-74
2021/07/28 05:04:25;;;;;;;13.40;9.48;;;18.60;99.90;;;;;;5073256;28;20287;-75
2021/07/28 05:06:52;;;;;;;18.08;9.98;;;18.60;99.90;;;;;;5074357;28;20311;-74
2021/07/28 05:09:19;;;;;;;13.68;8.93;;;18.60;99.90;;;;;;5072519;28;20225;-74
2021/07/28 05:11:46;;;;;;;12.45;9.70;;;18.60;99.90;;;;;;5065853;28;20224;-74
2021/07/28 05:14:13;;;;;;;13.10;9.43;;;18.50;99.90;;;;;;5075001;28;20649;-73
2021/07/28 05:16:40;;;;;;;13.88;9.80;;;18.60;99.90;;;;;;5075187;28;20205;-73
2021/07/28 05:19:07;;;;;;;13.95;9.20;;;18.60;99.90;;;;;;5073715;28;20197;-73
2021/07/28 05:21:35;;;;;;;17.58;9.57;;;18.60;99.90;;;;;;5082266;28;20204;-73
2021/07/28 05:24:02;;;;;;;15.70;9.00;;;18.60;99.90;;;;;;5072344;28;20202;-73
2021/07/28 05:26:29;;;;;;;17.38;8.52;;;18.70;99.90;;;;;;5064708;28;20641;-73
2021/07/28 05:28:56;;;;;;;17.52;9.25;;;18.70;99.90;;;;;;5069316;28;20271;-73
2021/07/28 05:31:23;;;;;;;15.50;10.07;;;18.80;99.90;;;;;;5070832;28;20235;-73
2021/07/28 05:33:50;;;;;;;12.98;8.07;;;18.80;99.90;;;;;;5082219;28;20553;-73
2021/07/28 05:36:17;;;;;;;13.23;9.00;;;18.80;99.90;;;;;;5078161;28;20196;-73
2021/07/28 05:38:45;;;;;;;13.40;9.27;;;18.80;99.90;;;;;;5077778;28;20255;-73
2021/07/28 05:41:12;;;;;;;10.40;7.97;;;18.90;99.90;;;;;;5073366;28;20205;-73
2021/07/28 05:43:39;;;;;;;15.23;8.90;;;19.00;99.90;;;;;;5068413;28;20239;-73
2021/07/28 05:46:06;;;;;;;12.80;8.90;;;19.00;99.90;;;;;;5075748;28;20231;-73
2021/07/28 05:48:32;;;;;;;12.93;8.63;;;19.00;99.90;;;;;;5076746;28;20201;-73
2021/07/28 05:51:00;;;;;;;13.80;8.57;;;18.90;99.90;;;;;;5075466;28;20201;-73
2021/07/28 05:53:40;;;;;;;11.20;8.95;;;18.90;99.90;;;;;;5077532;28;20198;-73
2021/07/28 05:56:09;;;;;;;15.40;8.90;;;18.90;99.90;;;;;;5053218;28;20653;-73
2021/07/28 05:58:36;;;;;;;16.10;9.20;;;19.00;99.90;;;;;;5079733;28;20216;-73
2021/07/28 06:01:03;;;;;;;18.13;9.45;;;18.90;99.90;;;;;;5081113;28;20227;-74
2021/07/28 06:03:30;;;;;;;14.48;8.65;;;19.00;99.90;;;;;;5074138;28;20291;-74
2021/07/28 06:05:59;;;;;;;12.27;8.05;;;19.00;99.90;;;;;;5064708;28;20206;-74
2021/07/28 06:08:26;;;;;;;13.88;8.55;;;19.00;99.90;;;;;;5071728;28;20201;-74
2021/07/28 06:10:53;;;;;;;16.63;8.82;;;19.10;99.90;;;;;;5073923;28;20206;-73
2021/07/28 06:13:21;;;;;;;13.63;9.48;;;19.10;99.90;;;;;;5075601;28;20205;-73
2021/07/28 06:15:48;;;;;;;14.10;9.20;;;19.10;99.90;;;;;;5068138;28;20231;-73
2021/07/28 06:18:15;;;;;;;16.35;8.70;;;19.10;99.90;;;;;;5070363;28;20294;-73
2021/07/28 06:20:43;;;;;;;15.98;9.23;;;19.10;99.90;;;;;;5083651;28;20288;-73
2021/07/28 06:23:10;;;;;;;13.07;9.65;;;19.10;99.90;;;;;;5083394;28;20257;-74
2021/07/28 06:25:36;;;;;;;16.77;9.23;;;19.10;99.90;;;;;;5085673;28;20201;-74
2021/07/28 06:28:04;;;;;;;12.88;9.30;;;19.20;99.90;;;;;;5089282;28;20243;-73
2021/07/28 06:30:32;;;;;;;14.27;8.50;;;19.20;99.90;;;;;;5079450;28;20225;-73
2021/07/28 06:32:59;;;;;;;13.98;9.02;;;19.10;99.90;;;;;;5065034;28;20291;-73
2021/07/28 06:35:26;;;;;;;13.73;8.77;;;19.10;99.90;;;;;;5076188;28;20230;-73
2021/07/28 06:37:53;;;;;;;10.63;8.60;;;19.10;99.90;;;;;;5076604;28;20330;-73
2021/07/28 06:40:20;;;;;;;12.75;9.27;;;19.10;99.90;;;;;;5074459;28;20210;-73
2021/07/28 06:42:47;;;;;;;13.00;8.48;;;19.10;99.90;;;;;;5077981;28;20224;-73
2021/07/28 06:45:14;;;;;;;10.38;8.48;;;19.20;99.90;;;;;;5074542;28;20202;-74
2021/07/28 06:47:43;;;;;;;10.35;7.63;;;19.30;99.90;;;;;;5068296;28;20237;-73
2021/07/28 06:50:11;;;;;;;14.07;7.95;;;19.30;99.90;;;;;;5075602;28;20251;-73
2021/07/28 06:52:38;;;;;;;13.07;8.43;;;19.30;99.90;;;;;;5074799;28;20236;-74
2021/07/28 06:55:06;;;;;;;10.88;8.23;;;19.40;99.90;;;;;;5069434;28;20210;-74
2021/07/28 06:57:33;;;;;;;14.38;8.98;;;19.30;99.90;;;;;;5068731;28;20255;-74
2021/07/28 07:00:00;;;;;;;13.63;10.02;;;19.30;99.90;;;;;;5074936;28;20204;-74
2021/07/28 07:02:27;;;;;;;19.20;10.00;;;19.20;99.90;;;;;;5070445;28;20197;-74
2021/07/28 07:04:55;;;;;;;23.98;10.13;;;19.20;99.90;;;;;;5080407;28;20209;-74
2021/07/28 07:07:23;;;;;;;14.93;9.75;;;19.20;99.90;;;;;;5071448;28;20247;-74
2021/07/28 07:09:51;;;;;;;16.35;9.35;;;19.20;99.90;;;;;;5080322;28;20279;-74
2021/07/28 07:12:19;;;;;;;20.35;10.60;;;19.40;99.90;;;;;;5075952;28;20232;-73
2021/07/28 07:14:46;;;;;;;15.38;9.95;;;19.30;99.90;;;;;;5071832;28;20231;-74
2021/07/28 07:17:13;;;;;;;13.23;9.25;;;19.40;99.90;;;;;;5072884;28;20225;-73
2021/07/28 07:19:40;;;;;;;14.93;9.07;;;19.40;99.90;;;;;;5077168;28;20229;-73
2021/07/28 07:22:09;;;;;;;15.63;9.88;;;19.40;99.90;;;;;;5068007;28;20550;-74
2021/07/28 07:24:36;;;;;;;14.70;9.90;;;19.40;99.90;;;;;;5079350;28;20209;-73
2021/07/28 07:27:03;;;;;;;14.75;8.20;;;19.40;99.90;;;;;;5082293;28;20342;-74
2021/07/28 07:29:30;;;;;;;16.10;8.90;;;19.50;99.90;;;;;;5070472;28;20217;-74
2021/07/28 07:31:57;;;;;;;20.63;10.18;;;19.40;99.90;;;;;;5078181;28;20209;-73
2021/07/28 07:34:24;;;;;;;12.48;8.30;;;19.50;99.90;;;;;;5067770;28;20220;-73
2021/07/28 07:36:51;;;;;;;23.63;9.98;;;19.50;99.90;;;;;;5078146;28;21366;-73
2021/07/28 07:39:19;;;;;;;14.80;8.90;;;19.60;99.90;;;;;;5072645;28;20253;-73
2021/07/28 07:41:46;;;;;;;15.13;9.30;;;19.60;99.90;;;;;;5066971;28;20197;-74
2021/07/28 07:44:13;;;;;;;14.57;9.68;;;19.70;99.90;;;;;;5072978;28;20202;-74
2021/07/28 07:46:40;;;;;;;18.92;10.15;;;19.80;99.90;;;;;;5073645;28;20224;-74
2021/07/28 07:49:07;;;;;;;15.38;8.70;;;19.80;99.90;;;;;;5072676;28;20198;-74
2021/07/28 07:51:34;;;;;;;15.48;9.18;;;19.70;99.90;;;;;;5083308;28;20262;-74
2021/07/28 07:54:01;;;;;;;18.55;9.68;;;19.80;99.90;;;;;;5078390;28;20213;-74
2021/07/28 07:56:29;;;;;;;17.17;8.82;;;19.70;99.90;;;;;;5072874;28;20224;-74
2021/07/28 07:58:56;;;;;;;16.10;9.10;;;19.60;99.90;;;;;;5072323;28;20300;-74
2021/07/28 08:01:23;;;;;;;16.42;9.82;;;19.50;99.90;;;;;;5080342;28;20283;-74
2021/07/28 08:03:50;;;;;;;14.55;10.23;;;19.40;99.90;;;;;;5070886;28;20229;-74
2021/07/28 08:06:17;;;;;;;17.00;10.50;;;19.40;99.90;;;;;;5076654;28;20260;-74
2021/07/28 08:08:44;;;;;;;11.48;9.60;;;19.30;99.90;;;;;;5076102;28;20209;-74
2021/07/28 08:11:11;;;;;;;16.25;10.05;;;19.30;99.90;;;;;;5076399;28;20229;-74
2021/07/28 08:13:40;;;;;;;13.57;10.80;;;19.30;99.90;;;;;;5083738;28;20248;-74
2021/07/28 08:16:12;;;;;;;16.88;9.95;;;19.40;99.90;;;;;;5071009;28;20213;-74
2021/07/28 08:18:39;;;;;;;17.17;10.93;;;19.50;99.90;;;;;;5067095;28;20209;-74
2021/07/28 08:21:08;;;;;;;17.17;10.43;;;19.70;99.90;;;;;;5078840;28;20205;-74
2021/07/28 08:23:36;;;;;;;16.60;9.95;;;19.90;99.90;;;;;;5076480;28;20739;-74
2021/07/28 08:26:03;;;;;;;12.38;7.55;;;20.30;99.90;;;;;;5075328;28;20201;-74
2021/07/28 08:28:32;;;;;;;15.18;6.93;;;20.60;99.90;;;;;;5078517;28;20202;-73
2021/07/28 08:31:00;;;;;;;8.70;6.43;;;20.80;99.90;;;;;;5065609;28;20225;-74
2021/07/28 08:33:28;;;;;;;8.90;5.13;;;20.90;99.90;;;;;;5072736;28;20197;-74
2021/07/28 08:35:56;;;;;;;8.25;6.30;;;21.00;99.90;;;;;;5067307;28;20204;-74
2021/07/28 08:38:23;;;;;;;7.68;5.38;;;21.20;99.90;;;;;;5068313;28;20201;-74
2021/07/28 08:40:55;;;;;;;9.32;5.88;;;21.30;99.90;;;;;;5074703;28;20236;-73
2021/07/28 08:43:24;;;;;;;9.88;5.65;;;21.40;99.90;;;;;;5070877;28;20205;-73
2021/07/28 08:45:52;;;;;;;6.30;5.45;;;21.60;99.90;;;;;;5075360;28;20228;-74
2021/07/28 08:48:22;;;;;;;11.75;6.18;;;21.50;99.90;;;;;;5074358;28;20200;-75
2021/07/28 08:50:50;;;;;;;9.43;5.45;;;21.60;99.90;;;;;;5071064;28;20311;-72
2021/07/28 08:53:17;;;;;;;9.88;6.03;;;21.80;99.90;;;;;;5050780;28;20232;-73
2021/07/28 08:55:45;;;;;;;8.80;6.15;;;22.30;99.90;;;;;;5077801;28;20246;-73
2021/07/28 08:58:15;;;;;;;6.30;5.40;;;22.70;99.90;;;;;;5071458;28;20206;-73
2021/07/28 09:00:42;;;;;;;5.85;4.88;;;22.90;99.90;;;;;;5077223;28;20304;-73
2021/07/28 09:03:09;;;;;;;7.07;5.38;;;23.10;99.90;;;;;;5072357;28;20224;-72
2021/07/28 09:05:43;;;;;;;10.32;5.85;;;23.30;99.90;;;;;;5065890;28;20206;-73
2021/07/28 09:08:23;;;;;;;7.85;5.72;;;23.40;99.90;;;;;;5079901;28;20326;-73
2021/07/28 09:10:51;;;;;;;9.57;5.05;;;23.30;99.90;;;;;;5062349;28;20247;-73
2021/07/28 09:13:27;;;;;;;8.07;5.40;;;23.10;99.90;;;;;;5068898;28;20216;-74
2021/07/28 09:15:56;;;;;;;6.75;6.05;;;22.90;99.90;;;;;;5071192;28;20212;-73
2021/07/28 09:18:32;;;;;;;6.80;4.93;;;22.70;99.90;;;;;;5074080;28;20232;-74
2021/07/28 09:21:01;;;;;;;10.45;4.50;;;22.60;99.90;;;;;;5078702;28;20260;-73
2021/07/28 09:23:40;;;;;;;5.90;4.85;;;22.60;99.90;;;;;;5073216;28;20220;-73
2021/07/28 09:26:34;;;;;;;8.52;5.25;;;22.40;99.90;;;;;;5071871;28;20239;-74
2021/07/28 09:29:10;;;;;;;9.77;4.93;;;22.60;99.90;;;;;;5071327;28;20209;-74
2021/07/28 09:31:39;;;;;;;7.88;4.93;;;22.80;99.90;;;;;;5077210;28;20256;-73
2021/07/28 09:34:10;;;;;;;8.10;4.50;;;23.00;99.90;;;;;;5075808;28;20205;-73
2021/07/28 09:36:38;;;;;;;12.75;4.80;;;23.00;99.90;;;;;;5072447;28;20201;-73
2021/07/28 09:39:05;;;;;;;8.25;4.80;;;22.90;99.90;;;;;;5079499;28;20253;-73
2021/07/28 09:41:39;;;;;;;8.18;4.80;;;22.90;99.90;;;;;;5065989;28;20233;-73
2021/07/28 09:44:07;;;;;;;7.30;5.00;;;23.00;99.90;;;;;;5074460;28;20276;-73
2021/07/28 09:46:35;;;;;;;4.60;4.20;;;23.20;99.90;;;;;;5068912;28;20623;-73
2021/07/28 09:49:05;;;;;;;5.22;4.32;;;23.50;99.90;;;;;;5075399;28;20201;-73
2021/07/28 09:51:34;;;;;;;5.40;3.63;;;23.80;99.90;;;;;;5078248;28;20216;-73
2021/07/28 09:54:05;;;;;;;6.43;5.10;;;23.80;99.90;;;;;;5065541;28;20220;-73
2021/07/28 09:56:39;;;;;;;4.65;4.25;;;23.80;99.90;;;;;;5074033;28;20204;-73
2021/07/28 09:59:06;;;;;;;9.23;5.00;;;23.90;99.90;;;;;;5068769;28;20208;-73
2021/07/28 10:08:21;;;;;;;4.28;3.53;;;24.80;99.90;;;;;;5092032;28;20200;-73
2021/07/28 10:10:48;;;;;;;5.80;3.50;;;24.80;99.90;;;;;;5090562;28;20205;-74
2021/07/28 10:13:16;;;;;;;5.20;3.33;;;24.60;99.90;;;;;;5084871;28;20213;-74
2021/07/28 10:15:44;;;;;;;10.32;3.20;;;24.60;99.90;;;;;;5085097;28;20205;-74
2021/07/28 10:18:11;;;;;;;5.75;2.47;;;24.60;99.90;;;;;;5083233;28;20710;-74
2021/07/28 10:20:39;;;;;;;4.88;2.70;;;24.70;99.90;;;;;;5086423;28;20258;-74
2021/07/28 10:23:06;;;;;;;7.38;2.70;;;24.80;99.90;;;;;;5082849;28;20232;-74
2021/07/28 10:25:34;;;;;;;6.40;2.40;;;25.00;99.90;;;;;;5082667;28;20275;-74
2021/07/28 10:28:01;;;;;;;5.32;2.85;;;25.10;99.90;;;;;;5082915;28;20205;-74
2021/07/28 10:30:29;;;;;;;4.55;2.60;;;24.90;99.90;;;;;;5088591;28;20205;-74
2021/07/28 10:32:56;;;;;;;4.43;3.38;;;24.80;99.90;;;;;;5083374;28;20205;-74
2021/07/28 10:35:29;;;;;;;3.63;2.20;;;24.50;99.90;;;;;;5082445;28;20200;-74
2021/07/28 10:37:58;;;;;;;3.40;2.28;;;24.30;99.90;;;;;;5084972;28;20276;-74
2021/07/28 10:40:58;;;;;;;2.90;2.28;;;24.40;99.90;;;;;;5087115;28;20258;-74
2021/07/28 10:43:25;;;;;;;3.00;2.80;;;24.60;99.90;;;;;;5088069;28;20252;-74
2021/07/28 10:46:01;;;;;;;2.60;2.40;;;24.90;99.90;;;;;;5082319;28;20288;-74
2021/07/28 10:48:59;;;;;;;2.45;2.10;;;25.00;99.90;;;;;;5082105;28;20201;-74
2021/07/28 10:51:55;;;;;;;3.08;2.20;;;25.20;99.90;;;;;;5094291;28;20231;-74
2021/07/28 10:54:59;;;;;;;4.03;2.40;;;25.50;99.90;;;;;;5090750;28;20279;-74
2021/07/28 10:58:06;;;;;;;5.57;2.22;;;25.60;99.90;;;;;;5099232;28;20200;-75
2021/07/28 11:00:54;;;;;;;2.92;2.22;;;25.50;99.90;;;;;;5081480;28;20284;-76
2021/07/28 11:03:28;;;;;;;5.25;1.98;;;25.50;99.90;;;;;;5085931;28;20237;-75
2021/07/28 11:06:18;;;;;;;2.67;1.92;;;25.50;99.90;;;;;;5088174;28;20205;-74
2021/07/28 11:08:45;;;;;;;2.42;2.22;;;25.30;99.90;;;;;;5085916;28;20652;-76
2021/07/28 11:11:21;;;;;;;1.98;1.77;;;25.20;99.90;;;;;;5087630;28;20263;-76
2021/07/28 11:13:48;;;;;;;4.75;2.30;;;25.00;99.90;;;;;;5082089;28;20262;-75
2021/07/28 11:16:17;;;;;;;3.40;2.00;;;24.80;99.90;;;;;;5069750;28;20206;-75
2021/07/28 11:18:45;;;;;;;5.22;2.42;;;24.60;99.90;;;;;;5079501;28;20205;-75
2021/07/28 11:21:14;;;;;;;2.22;1.73;;;24.50;99.90;;;;;;5068355;28;20201;-75
2021/07/28 11:23:47;;;;;;;3.75;2.25;;;24.50;99.90;;;;;;5073455;28;20229;-75
2021/07/28 11:26:22;;;;;;;6.53;2.38;;;24.50;99.90;;;;;;5075928;28;20232;-75
2021/07/28 11:28:52;;;;;;;2.35;2.03;;;24.50;99.90;;;;;;5075445;28;20225;-75
2021/07/28 11:31:28;;;;;;;2.92;1.80;;;24.40;99.90;;;;;;5068174;28;20263;-75
2021/07/28 11:34:13;;;;;;;3.63;2.63;;;24.30;99.90;;;;;;5068902;28;20201;-75
2021/07/28 11:36:41;;;;;;;6.50;2.72;;;24.00;99.90;;;;;;5068139;28;20193;-75
2021/07/28 11:39:11;;;;;;;3.08;2.15;;;23.90;99.90;;;;;;5077142;28;20263;-75
2021/07/28 11:41:38;;;;;;;11.88;2.50;;;23.80;99.90;;;;;;5074195;28;20629;-75
2021/07/28 11:44:08;;;;;;;3.03;2.60;;;23.80;99.90;;;;;;5072483;28;20202;-75
2021/07/28 11:47:22;;;;;;;5.05;1.90;;;23.90;99.90;;;;;;5073739;28;21132;-75
2021/07/28 11:50:02;;;;;;;2.60;2.05;;;24.00;99.90;;;;;;5069536;28;20649;-75
2021/07/28 11:52:31;;;;;;;2.10;1.77;;;24.10;99.90;;;;;;5068211;28;20225;-75
2021/07/28 11:54:58;;;;;;;2.42;1.50;;;24.10;99.90;;;;;;5068245;28;20212;-75
2021/07/28 11:57:25;;;;;;;3.13;2.10;;;24.10;99.90;;;;;;5074963;28;20604;-75
2021/07/28 11:59:52;;;;;;;1.90;1.63;;;24.30;99.90;;;;;;5071100;28;20205;-76
2021/07/28 12:02:20;;;;;;;5.63;2.42;;;24.30;99.90;;;;;;5067451;28;20228;-75
2021/07/28 12:07:30;;;;;;;2.80;1.55;;;24.40;99.90;;;;;;5066964;28;20212;-75
2021/07/28 12:09:58;;;;;;;3.13;2.05;;;24.40;99.90;;;;;;5068164;28;20202;-76
2021/07/28 12:12:26;;;;;;;4.15;1.38;;;24.30;99.90;;;;;;5071539;28;20198;-76
2021/07/28 12:15:09;;;;;;;3.40;1.60;;;24.30;99.90;;;;;;5070879;28;20271;-75
2021/07/28 12:17:36;;;;;;;2.95;1.70;;;24.30;99.90;;;;;;5073001;28;20632;-75
2021/07/28 12:20:05;;;;;;;2.75;1.67;;;24.40;99.90;;;;;;5072637;28;20236;-75
2021/07/28 12:22:35;;;;;;;2.78;1.70;;;24.40;99.90;;;;;;5071047;28;20454;-75
2021/07/28 12:25:16;;;;;;;2.90;1.85;;;24.50;99.90;;;;;;5066822;28;20287;-74
2021/07/28 12:28:07;;;;;;;2.13;1.75;;;24.60;99.90;;;;;;5066495;28;20205;-75
2021/07/28 12:30:36;;;;;;;3.00;2.55;;;24.60;99.90;;;;;;5066574;28;20220;-75
2021/07/28 12:33:06;;;;;;;3.45;2.63;;;24.60;99.90;;;;;;5076216;28;20589;-75
2021/07/28 12:35:46;;;;;;;4.47;2.35;;;24.60;99.90;;;;;;5070710;28;20194;-75
2021/07/28 12:38:17;;;;;;;1.92;1.58;;;24.40;99.90;;;;;;5066094;28;20201;-75
2021/07/28 12:40:46;;;;;;;2.67;2.47;;;24.40;99.90;;;;;;5077999;28;21240;-75
2021/07/28 12:43:14;;;;;;;2.05;1.88;;;24.40;99.90;;;;;;5067169;28;20202;-75
2021/07/28 12:45:42;;;;;;;1.88;1.63;;;24.40;99.90;;;;;;5066875;28;20202;-75
2021/07/28 12:48:09;;;;;;;1.45;1.35;;;24.40;99.90;;;;;;5070391;28;20206;-75
2021/07/28 12:50:38;;;;;;;3.72;1.42;;;24.40;99.90;;;;;;5071500;28;20232;-75
2021/07/28 12:53:05;;;;;;;3.50;1.70;;;24.50;99.90;;;;;;5076059;28;20270;-75
2021/07/28 12:55:34;;;;;;;1.80;1.70;;;24.40;99.90;;;;;;5079025;28;20205;-76
2021/07/28 12:58:01;;;;;;;3.88;1.50;;;24.40;99.90;;;;;;5066157;28;20200;-75
2021/07/28 13:00:28;;;;;;;2.15;1.60;;;24.40;99.90;;;;;;5067282;28;20205;-75
2021/07/28 13:02:55;;;;;;;1.98;1.73;;;24.40;99.90;;;;;;5066652;28;20233;-75
2021/07/28 13:05:24;;;;;;;6.03;1.55;;;24.40;99.90;;;;;;5072347;28;20206;-75
2021/07/28 13:08:03;;;;;;;3.88;1.75;;;24.40;99.90;;;;;;5082275;28;20265;-75
2021/07/28 13:10:30;;;;;;;1.58;1.20;;;24.40;99.90;;;;;;5087343;28;20211;-75
2021/07/28 13:12:58;;;;;;;2.25;1.58;;;24.30;99.90;;;;;;5072643;28;20232;-75
2021/07/28 13:15:25;;;;;;;2.08;1.50;;;24.40;99.90;;;;;;5067834;28;20206;-75
2021/07/28 13:17:53;;;;;;;1.63;1.27;;;24.40;99.90;;;;;;5069666;28;20267;-75
2021/07/28 13:20:21;;;;;;;4.07;1.27;;;24.40;99.90;;;;;;5073214;28;20228;-75
2021/07/28 13:22:48;;;;;;;2.78;1.45;;;24.40;99.90;;;;;;5071149;28;20275;-75
2021/07/28 13:25:15;;;;;;;3.50;1.48;;;24.30;99.90;;;;;;5066347;28;20221;-75
2021/07/28 13:27:42;;;;;;;2.15;1.70;;;24.30;99.90;;;;;;5065579;28;20232;-75
2021/07/28 13:30:12;;;;;;;2.03;1.60;;;24.30;99.90;;;;;;5073008;28;20255;-75
2021/07/28 13:32:39;;;;;;;7.55;1.20;;;24.40;99.90;;;;;;5065941;28;20340;-75
2021/07/28 13:35:09;;;;;;;2.75;1.30;;;24.40;99.90;;;;;;5071690;28;20205;-75
2021/07/28 13:37:37;;;;;;;2.35;1.50;;;24.30;99.90;;;;;;5075423;28;20210;-75
2021/07/28 13:40:08;;;;;;;2.15;1.38;;;24.40;99.90;;;;;;5065312;28;20224;-75
2021/07/28 13:42:36;;;;;;;1.70;1.38;;;24.40;99.90;;;;;;5065575;28;20213;-75
2021/07/28 13:45:04;;;;;;;1.60;1.50;;;24.50;99.90;;;;;;5065866;28;20249;-75